Time;durP1;ratioP1;P1;durP2;ratioP2;P2;SDS_P1;SDS_P2;PMS_P1;PMS_P2;Temp;Humidity;BMP_temperature;BMP_pressure;BME280_temperature;BME280_humidity;BME280_pressure;Samples;Min_cycle;Max_cycle;Signal;HPM_P1;HPM_P2
2021/09/03 00:01:20;;;;;;;10.25;7.32;;;435.90;2355.20;;;;;;5072652;28;20029;-64
2021/09/03 00:03:46;;;;;;;7.57;5.65;;;435.90;2355.20;;;;;;5073922;28;20017;-64
2021/09/03 00:06:12;;;;;;;8.32;6.68;;;435.80;2355.20;;;;;;5073102;28;20032;-64
2021/09/03 00:08:38;;;;;;;10.43;7.07;;;435.80;2355.20;;;;;;5073454;28;20035;-64
2021/09/03 00:11:04;;;;;;;14.13;7.82;;;435.60;2355.20;;;;;;5073466;28;20093;-64
2021/09/03 00:13:30;;;;;;;9.68;7.38;;;435.60;2355.20;;;;;;5073253;28;20413;-64
2021/09/03 00:15:56;;;;;;;11.55;7.60;;;435.50;2355.20;;;;;;5073307;28;20066;-64
2021/09/03 00:18:22;;;;;;;13.40;6.80;;;435.50;2355.20;;;;;;5072988;28;20033;-64
2021/09/03 00:20:48;;;;;;;10.68;7.03;;;435.50;2355.20;;;;;;5073414;28;20055;-64
2021/09/03 00:23:14;;;;;;;9.60;6.97;;;435.30;2355.20;;;;;;5072956;28;20059;-64
2021/09/03 00:25:39;;;;;;;13.10;7.05;;;435.30;2355.20;;;;;;5073121;28;20028;-64
2021/09/03 00:28:05;;;;;;;9.30;6.70;;;435.30;2355.20;;;;;;5073024;28;20024;-63
2021/09/03 00:30:31;;;;;;;13.25;6.90;;;435.30;2355.20;;;;;;5072854;28;20462;-63
2021/09/03 00:32:57;;;;;;;9.23;6.88;;;435.20;2355.20;;;;;;5073222;28;20116;-63
2021/09/03 00:35:23;;;;;;;11.65;7.82;;;435.20;2355.20;;;;;;5072706;28;20119;-63
2021/09/03 00:37:48;;;;;;;13.40;7.95;;;410.50;2355.20;;;;;;5072704;28;20047;-64
2021/09/03 00:40:14;;;;;;;10.65;6.78;;;410.40;2355.20;;;;;;5072885;28;20025;-63
2021/09/03 00:42:40;;;;;;;11.77;7.50;;;410.40;2355.20;;;;;;5072416;28;20115;-65
2021/09/03 00:45:06;;;;;;;10.70;7.40;;;410.40;2355.20;;;;;;5072662;28;20131;-63
2021/09/03 00:47:32;;;;;;;12.60;8.25;;;410.40;2355.20;;;;;;5072709;28;20021;-64
2021/09/03 00:49:58;;;;;;;10.05;7.35;;;410.30;2355.20;;;;;;5072402;28;20054;-65
2021/09/03 00:52:25;;;;;;;11.82;7.40;;;410.20;2355.20;;;;;;5072761;28;20024;-61
2021/09/03 00:54:54;;;;;;;11.07;6.78;;;410.10;2355.20;;;;;;5072232;28;20025;-64
2021/09/03 00:57:22;;;;;;;13.25;6.60;;;410.10;2355.20;;;;;;5072348;28;20044;-65
2021/09/03 00:59:47;;;;;;;9.55;6.22;;;410.10;2355.20;;;;;;5072890;28;20035;-64
2021/09/03 01:02:13;;;;;;;9.00;6.70;;;410.10;2355.20;;;;;;5072358;28;20025;-64
2021/09/03 01:04:39;;;;;;;11.52;7.15;;;410.10;2355.20;;;;;;5072395;28;20035;-64
2021/09/03 01:07:05;;;;;;;9.15;6.82;;;410.00;2355.20;;;;;;5072272;28;20052;-64
2021/09/03 01:09:30;;;;;;;8.85;6.57;;;410.00;2355.20;;;;;;5072318;28;20025;-64
2021/09/03 01:11:56;;;;;;;11.23;7.10;;;409.90;2355.20;;;;;;5072245;28;20458;-64
2021/09/03 01:14:23;;;;;;;7.38;5.72;;;410.00;2355.20;;;;;;5072103;28;20047;-64
2021/09/03 01:16:49;;;;;;;9.13;6.82;;;409.90;2355.20;;;;;;5072208;28;20075;-65
2021/09/03 01:19:15;;;;;;;7.88;5.32;;;409.80;2355.20;;;;;;5072092;28;20025;-64
2021/09/03 01:21:40;;;;;;;9.23;6.47;;;409.80;2355.20;;;;;;5072100;28;20024;-64
2021/09/03 01:24:06;;;;;;;7.68;6.05;;;409.70;2355.20;;;;;;5072119;28;20112;-64
2021/09/03 01:26:32;;;;;;;9.35;6.18;;;409.70;2355.20;;;;;;5071913;28;20055;-63
2021/09/03 01:28:58;;;;;;;9.85;6.40;;;409.70;2355.20;;;;;;5071795;28;20424;-64
2021/09/03 01:31:24;;;;;;;9.00;6.32;;;409.70;2355.20;;;;;;5071892;28;20052;-64
2021/09/03 01:33:54;;;;;;;9.93;6.28;;;409.70;2355.20;;;;;;5071899;28;20032;-64
2021/09/03 01:36:27;;;;;;;9.88;6.53;;;409.60;2355.20;;;;;;5071672;28;20028;-64
2021/09/03 01:38:53;;;;;;;8.15;6.25;;;384.90;2329.60;;;;;;5071740;28;20142;-64
2021/09/03 01:41:19;;;;;;;10.60;6.47;;;384.90;2329.60;;;;;;5071687;28;20025;-64
2021/09/03 01:43:45;;;;;;;7.85;5.53;;;384.90;2329.60;;;;;;5071632;28;20043;-62
2021/09/03 01:46:10;;;;;;;10.30;6.50;;;409.60;2355.20;;;;;;5071483;28;20083;-63
2021/09/03 01:48:36;;;;;;;11.18;6.13;;;384.90;2329.60;;;;;;5071632;28;20028;-63
2021/09/03 01:51:02;;;;;;;11.32;6.82;;;384.90;2329.60;;;;;;5071510;28;20037;-64
2021/09/03 01:53:27;;;;;;;8.43;5.85;;;384.80;2329.60;;;;;;5071375;28;20021;-63
2021/09/03 01:55:53;;;;;;;9.32;6.80;;;384.90;2329.60;;;;;;5071557;28;20070;-63
2021/09/03 01:58:19;;;;;;;9.63;6.82;;;384.80;2329.60;;;;;;5071306;28;20045;-64
2021/09/03 02:00:45;;;;;;;8.18;5.85;;;384.80;2329.60;;;;;;5071780;28;20085;-64
2021/09/03 02:03:11;;;;;;;10.80;6.18;;;384.70;2329.60;;;;;;5071237;28;20107;-64
2021/09/03 02:05:36;;;;;;;9.15;6.55;;;384.70;2329.60;;;;;;5070927;28;20032;-64
2021/09/03 02:08:02;;;;;;;11.55;6.15;;;384.70;2329.60;;;;;;5071599;28;20051;-64
2021/09/03 02:10:28;;;;;;;9.43;6.93;;;384.70;2329.60;;;;;;5071325;28;20039;-65
2021/09/03 02:12:54;;;;;;;8.27;6.35;;;384.60;2329.60;;;;;;5071316;28;20344;-64
2021/09/03 02:15:19;;;;;;;8.00;6.03;;;384.60;2329.60;;;;;;5071600;28;20128;-64
2021/09/03 02:17:45;;;;;;;13.60;7.07;;;384.50;2329.60;;;;;;5071678;28;20097;-64
2021/09/03 02:20:11;;;;;;;9.80;7.13;;;384.50;2329.60;;;;;;5071237;28;20107;-70
2021/09/03 02:22:37;;;;;;;15.60;6.63;;;384.40;2329.60;;;;;;5071560;28;20074;-73
2021/09/03 02:25:03;;;;;;;9.55;6.80;;;384.30;2329.60;;;;;;5070811;28;20055;-63
2021/09/03 02:27:29;;;;;;;7.90;6.15;;;384.30;2329.60;;;;;;5070594;28;20035;-64
2021/09/03 02:29:55;;;;;;;10.15;6.85;;;384.30;2329.60;;;;;;5070866;28;20386;-64
2021/09/03 02:32:20;;;;;;;9.27;6.00;;;384.30;2329.60;;;;;;5070870;28;20472;-66
2021/09/03 02:34:47;;;;;;;10.07;6.82;;;384.30;2329.60;;;;;;5070728;28;20544;-64
2021/09/03 02:37:14;;;;;;;11.45;7.05;;;384.30;2329.60;;;;;;5070644;28;20044;-64
2021/09/03 02:39:40;;;;;;;10.98;7.05;;;384.30;2329.60;;;;;;5070462;28;20029;-64
2021/09/03 02:42:06;;;;;;;9.10;6.53;;;384.20;2329.60;;;;;;5070625;28;20099;-64
2021/09/03 02:44:31;;;;;;;8.65;6.43;;;384.00;2329.60;;;;;;5070328;28;20035;-64
2021/09/03 02:46:57;;;;;;;9.95;6.45;;;359.30;2329.60;;;;;;5070828;28;20024;-63
2021/09/03 02:49:23;;;;;;;8.48;6.18;;;359.30;2329.60;;;;;;5070252;28;20559;-63
2021/09/03 02:51:49;;;;;;;8.82;6.18;;;359.30;2329.60;;;;;;5070519;28;20024;-64
2021/09/03 02:54:14;;;;;;;9.63;7.05;;;359.30;2329.60;;;;;;5070382;28;20132;-64
2021/09/03 02:56:40;;;;;;;8.70;5.55;;;359.30;2329.60;;;;;;5070150;28;20025;-64
2021/09/03 02:59:06;;;;;;;8.57;6.43;;;359.30;2329.60;;;;;;5070330;28;20058;-63
2021/09/03 03:01:31;;;;;;;8.60;7.13;;;359.30;2329.60;;;;;;5070170;28;20066;-63
2021/09/03 03:03:57;;;;;;;10.55;7.22;;;359.30;2329.60;;;;;;5070272;28;20020;-63
2021/09/03 03:06:23;;;;;;;8.07;6.70;;;359.30;2329.60;;;;;;5070036;28;20093;-64
2021/09/03 03:08:48;;;;;;;8.57;6.38;;;359.20;2329.60;;;;;;5070328;28;20020;-65
2021/09/03 03:11:14;;;;;;;12.88;6.97;;;359.10;2329.60;;;;;;5070361;28;20027;-64
2021/09/03 03:13:46;;;;;;;12.23;7.10;;;359.10;2329.60;;;;;;5070125;28;20041;-64
2021/09/03 03:16:14;;;;;;;9.65;6.97;;;359.10;2329.60;;;;;;5069567;28;20043;-65
2021/09/03 03:18:40;;;;;;;9.02;6.97;;;359.10;2329.60;;;;;;5069536;28;20085;-64
2021/09/03 03:21:06;;;;;;;9.93;7.38;;;359.10;2329.60;;;;;;5070383;28;20050;-64
2021/09/03 03:23:32;;;;;;;8.50;6.32;;;359.10;2329.60;;;;;;5069944;28;20463;-64
2021/09/03 03:25:57;;;;;;;9.65;6.88;;;359.10;2329.60;;;;;;5070183;28;20359;-64
2021/09/03 03:28:23;;;;;;;9.35;6.80;;;359.00;2329.60;;;;;;5069888;28;20032;-64
2021/09/03 03:30:49;;;;;;;9.20;6.78;;;359.00;2329.60;;;;;;5070283;28;20068;-64
2021/09/03 03:33:14;;;;;;;9.90;7.35;;;359.00;2329.60;;;;;;5070261;28;20082;-63
2021/09/03 03:35:40;;;;;;;9.40;6.65;;;359.00;2329.60;;;;;;5069863;28;20036;-64
2021/09/03 03:38:06;;;;;;;9.13;7.53;;;358.90;2329.60;;;;;;5069947;28;20035;-63
2021/09/03 03:40:32;;;;;;;11.40;6.78;;;358.80;2329.60;;;;;;5069716;28;20056;-63
2021/09/03 03:42:58;;;;;;;11.20;7.43;;;358.70;2329.60;;;;;;5070082;28;20036;-64
2021/09/03 03:45:24;;;;;;;14.73;6.45;;;358.70;2329.60;;;;;;5069845;28;20441;-63
2021/09/03 03:47:50;;;;;;;11.25;7.53;;;358.80;2329.60;;;;;;5069935;28;20126;-64
2021/09/03 03:50:16;;;;;;;12.10;7.35;;;358.80;2329.60;;;;;;5070039;28;20374;-64
2021/09/03 03:52:42;;;;;;;17.35;6.78;;;358.80;2329.60;;;;;;5069634;28;20025;-64
2021/09/03 03:55:08;;;;;;;10.63;7.55;;;358.80;2329.60;;;;;;5069700;28;20047;-63
2021/09/03 03:57:34;;;;;;;8.88;6.63;;;358.80;2329.60;;;;;;5070205;28;20123;-63
2021/09/03 04:00:00;;;;;;;9.07;6.70;;;358.80;2329.60;;;;;;5069965;28;20028;-66
2021/09/03 04:02:26;;;;;;;10.88;8.02;;;358.80;2329.60;;;;;;5070306;28;20028;-64
2021/09/03 04:04:52;;;;;;;10.27;6.45;;;358.90;2329.60;;;;;;5070212;28;20056;-66
2021/09/03 04:07:17;;;;;;;10.40;6.57;;;359.00;2329.60;;;;;;5070779;28;20387;-65
2021/09/03 04:09:43;;;;;;;10.82;6.72;;;359.00;2329.60;;;;;;5070436;28;20447;-64
2021/09/03 04:12:09;;;;;;;11.48;7.60;;;359.00;2329.60;;;;;;5070699;28;20020;-64
2021/09/03 04:14:36;;;;;;;8.02;6.18;;;359.00;2329.60;;;;;;5070867;28;20064;-63
2021/09/03 04:17:01;;;;;;;9.10;6.50;;;359.00;2329.60;;;;;;5070309;28;20451;-63
2021/09/03 04:19:27;;;;;;;11.98;7.10;;;359.00;2329.60;;;;;;5070304;28;20024;-63
2021/09/03 04:21:53;;;;;;;11.18;7.10;;;359.00;2329.60;;;;;;5070272;28;20025;-64
2021/09/03 04:24:18;;;;;;;14.40;7.63;;;359.00;2329.60;;;;;;5070689;28;20107;-64
2021/09/03 04:26:44;;;;;;;11.13;6.80;;;359.00;2329.60;;;;;;5070855;28;20046;-63
2021/09/03 04:29:10;;;;;;;11.65;6.45;;;359.00;2329.60;;;;;;5072807;28;20056;-64
2021/09/03 04:31:35;;;;;;;11.43;7.45;;;359.10;2329.60;;;;;;5075173;28;20411;-67
2021/09/03 04:34:01;;;;;;;12.35;6.63;;;359.10;2329.60;;;;;;5074700;28;20475;-65
2021/09/03 04:36:27;;;;;;;17.55;8.43;;;359.20;2329.60;;;;;;5074861;28;20352;-66
2021/09/03 04:38:53;;;;;;;13.73;7.90;;;359.30;2329.60;;;;;;5074586;28;20033;-64
2021/09/03 04:41:18;;;;;;;12.35;7.68;;;359.30;2329.60;;;;;;5074761;28;20020;-65
2021/09/03 04:43:44;;;;;;;9.70;7.22;;;384.00;2329.60;;;;;;5074501;28;20036;-68
2021/09/03 04:46:10;;;;;;;11.25;6.90;;;384.00;2329.60;;;;;;5074269;28;20367;-64
2021/09/03 04:48:36;;;;;;;13.02;6.90;;;384.00;2329.60;;;;;;5074994;28;20059;-67
2021/09/03 04:51:02;;;;;;;11.30;6.40;;;384.10;2329.60;;;;;;5074787;28;20467;-64
2021/09/03 04:53:27;;;;;;;8.80;6.50;;;384.10;2329.60;;;;;;5074699;28;20079;-69
2021/09/03 04:55:53;;;;;;;7.43;6.25;;;384.20;2329.60;;;;;;5074860;28;20032;-65
2021/09/03 04:58:19;;;;;;;8.65;6.47;;;384.30;2329.60;;;;;;5074891;28;20044;-64
2021/09/03 05:00:45;;;;;;;9.73;6.63;;;384.40;2329.60;;;;;;5074876;28;20600;-64
2021/09/03 05:03:11;;;;;;;11.75;7.10;;;384.50;2329.60;;;;;;5075036;28;20032;-65
2021/09/03 05:05:36;;;;;;;9.48;6.30;;;384.70;2329.60;;;;;;5079141;28;20024;-63
2021/09/03 05:08:04;;;;;;;13.00;5.90;;;435.20;2355.20;;;;;;5074130;28;20490;-64
2021/09/03 05:10:30;;;;;;;13.63;7.32;;;461.30;2380.80;;;;;;5072143;28;20462;-64
2021/09/03 05:12:56;;;;;;;10.63;6.38;;;487.10;2380.80;;;;;;5072638;28;20028;-65
2021/09/03 05:15:34;;;;;;;8.40;6.63;;;563.40;2432.00;;;;;;5072205;28;20094;-66
2021/09/03 05:18:00;;;;;;;9.52;7.07;;;589.70;2432.00;;;;;;5072473;28;20085;-65
2021/09/03 05:20:26;;;;;;;8.38;6.05;;;589.30;2432.00;;;;;;5072605;28;20024;-64
2021/09/03 05:22:51;;;;;;;11.02;7.45;;;615.30;2304.00;;;;;;5072258;28;20028;-61
2021/09/03 05:25:17;;;;;;;13.98;7.63;;;589.00;2406.40;;;;;;5072455;28;20429;-61
2021/09/03 05:27:43;;;;;;;15.15;7.60;;;538.30;2406.40;;;;;;5072692;28;20021;-62
2021/09/03 05:30:10;;;;;;;13.02;8.32;;;564.10;2432.00;;;;;;5072663;28;20051;-61
2021/09/03 05:32:37;;;;;;;9.35;6.95;;;615.20;2252.80;;;;;;5072947;28;20028;-62
2021/09/03 05:35:05;;;;;;;9.57;7.53;;;614.90;2252.80;;;;;;5072658;28;20491;-62
2021/09/03 05:37:30;;;;;;;9.60;7.78;;;588.90;2380.80;;;;;;5072467;28;20070;-62
2021/09/03 05:39:58;;;;;;;10.52;7.72;;;589.40;2355.20;;;;;;5071483;28;20079;-62
2021/09/03 05:42:24;;;;;;;10.48;7.78;;;640.40;2150.40;;;;;;5072744;28;20056;-62
2021/09/03 05:44:50;;;;;;;8.50;6.70;;;614.40;2252.80;;;;;;5071869;28;20031;-61
2021/09/03 05:47:16;;;;;;;10.50;8.13;;;589.60;2278.40;;;;;;5071734;28;20029;-61
2021/09/03 05:49:41;;;;;;;9.98;6.95;;;666.10;2099.20;;;;;;5071652;28;20086;-62
2021/09/03 05:52:07;;;;;;;10.73;7.45;;;717.20;1945.60;;;;;;5072476;28;20028;-62
2021/09/03 05:54:33;;;;;;;9.10;8.20;;;768.00;1792.00;;;;;;5071517;28;20072;-62
2021/09/03 05:56:58;;;;;;;10.55;7.85;;;794.40;1638.40;;;;;;5072326;28;20041;-62
2021/09/03 05:59:24;;;;;;;11.65;9.55;;;819.20;1587.20;;;;;;5073504;28;20031;-63
2021/09/03 06:01:50;;;;;;;9.48;8.55;;;819.20;1561.60;;;;;;5072619;28;20025;-62
2021/09/03 06:04:15;;;;;;;13.60;9.48;;;844.80;1484.80;;;;;;5073238;28;20036;-63
2021/09/03 06:06:41;;;;;;;10.32;8.93;;;845.00;1459.20;;;;;;5072270;28;20070;-62
2021/09/03 06:09:07;;;;;;;10.23;9.18;;;845.70;1408.00;;;;;;5072710;28;20086;-63
2021/09/03 06:11:33;;;;;;;10.20;9.30;;;845.70;1382.40;;;;;;5072592;28;20156;-63
2021/09/03 06:13:59;;;;;;;10.05;9.25;;;870.50;1356.80;;;;;;5071390;28;20053;-63
2021/09/03 06:16:25;;;;;;;10.73;9.63;;;871.10;1305.60;;;;;;5074416;28;20036;-63
2021/09/03 06:18:51;;;;;;;11.63;10.63;;;871.30;1305.60;;;;;;5073791;28;20461;-62
2021/09/03 06:21:17;;;;;;;11.80;10.75;;;896.60;1254.40;;;;;;5075543;28;20105;-63
2021/09/03 06:23:43;;;;;;;12.05;11.05;;;922.00;1228.80;;;;;;5074932;28;20024;-63
2021/09/03 06:26:09;;;;;;;13.15;12.07;;;947.30;1177.60;;;;;;5072449;28;20435;-68
2021/09/03 06:28:35;;;;;;;13.80;12.38;;;973.20;1126.40;;;;;;5073463;28;20020;-63
2021/09/03 06:31:01;;;;;;;12.30;11.15;;;973.40;1126.40;;;;;;5072475;28;20478;-63
2021/09/03 06:33:26;;;;;;;14.93;13.70;;;973.70;1100.80;;;;;;5072460;28;20033;-63
2021/09/03 06:35:52;;;;;;;14.95;13.75;;;998.70;1100.80;;;;;;5072152;28;20036;-67
2021/09/03 06:38:18;;;;;;;13.93;12.48;;;973.70;1075.20;;;;;;5071656;28;20025;-63
2021/09/03 06:40:44;;;;;;;15.60;14.48;;;998.80;1075.20;;;;;;5072446;28;20352;-63
2021/09/03 06:43:10;;;;;;;16.52;15.10;;;1024.00;1024.00;;;;;;5072071;28;20027;-66
2021/09/03 06:45:35;;;;;;;15.52;14.43;;;1024.40;1024.00;;;;;;5073187;28;20024;-63
2021/09/03 06:48:01;;;;;;;16.60;14.90;;;1024.20;1024.00;;;;;;5071615;28;20039;-63
2021/09/03 06:50:27;;;;;;;18.77;17.10;;;1049.60;1024.00;;;;;;5071503;28;20132;-63
2021/09/03 06:52:53;;;;;;;16.83;15.52;;;1024.20;998.40;;;;;;5071714;28;20067;-63
2021/09/03 06:55:19;;;;;;;15.82;14.70;;;1050.20;972.80;;;;;;5071441;28;20470;-63
2021/09/03 06:57:45;;;;;;;16.55;15.35;;;1050.30;972.80;;;;;;5071815;28;20040;-62
2021/09/03 07:00:11;;;;;;;15.13;14.02;;;1024.70;972.80;;;;;;5071517;28;20505;-63
2021/09/03 07:02:38;;;;;;;17.20;15.90;;;1050.40;972.80;;;;;;5071315;28;20470;-64
2021/09/03 07:05:04;;;;;;;16.40;15.30;;;1075.80;921.60;;;;;;5070827;28;20024;-62
2021/09/03 07:07:30;;;;;;;15.00;14.00;;;1101.00;921.60;;;;;;5071758;28;20406;-63
2021/09/03 07:09:56;;;;;;;15.75;14.75;;;1075.30;947.20;;;;;;5071370;28;20019;-62
2021/09/03 07:12:23;;;;;;;15.85;14.75;;;1101.10;921.60;;;;;;5070685;28;20031;-63
2021/09/03 07:14:49;;;;;;;16.27;15.05;;;1075.80;896.00;;;;;;5070722;28;20064;-63
2021/09/03 07:17:15;;;;;;;15.88;14.80;;;1075.40;921.60;;;;;;5070661;28;20017;-62
2021/09/03 07:19:41;;;;;;;14.85;13.30;;;1024.50;947.20;;;;;;5070017;28;20074;-60
2021/09/03 07:22:07;;;;;;;15.52;14.52;;;1049.60;947.20;;;;;;5070856;28;20016;-62
2021/09/03 07:24:33;;;;;;;14.57;13.55;;;1050.20;921.60;;;;;;5071862;28;20025;-63
2021/09/03 07:26:59;;;;;;;14.73;13.65;;;1076.10;870.40;;;;;;5072535;28;20029;-62
2021/09/03 07:29:25;;;;;;;16.05;14.80;;;1101.10;870.40;;;;;;5070792;28;20390;-62
2021/09/03 07:31:52;;;;;;;13.60;12.38;;;1101.60;844.80;;;;;;5072275;28;20031;-63
2021/09/03 07:34:18;;;;;;;13.48;12.43;;;1050.00;921.60;;;;;;5071308;28;20041;-63
2021/09/03 07:36:44;;;;;;;13.68;12.68;;;1100.90;870.40;;;;;;5070822;28;20103;-67
2021/09/03 07:39:09;;;;;;;14.77;13.55;;;1075.30;896.00;;;;;;5070388;28;20033;-65
2021/09/03 07:41:35;;;;;;;13.85;12.85;;;1050.50;896.00;;;;;;5070281;28;20029;-62
2021/09/03 07:44:01;;;;;;;13.30;12.30;;;1075.40;870.40;;;;;;5069920;28;20490;-62
2021/09/03 07:46:27;;;;;;;13.02;12.13;;;1101.20;870.40;;;;;;5069982;28;20016;-62
2021/09/03 07:48:52;;;;;;;15.43;14.15;;;1126.70;819.20;;;;;;5069565;28;20386;-62
2021/09/03 07:51:18;;;;;;;16.50;15.15;;;1127.30;819.20;;;;;;5069920;28;20086;-62
2021/09/03 07:53:44;;;;;;;14.35;12.98;;;1075.90;870.40;;;;;;5069822;28;20363;-62
2021/09/03 07:56:10;;;;;;;15.32;14.10;;;1101.30;844.80;;;;;;5069685;28;20100;-62
2021/09/03 07:58:36;;;;;;;14.73;13.27;;;1126.40;870.40;;;;;;5069610;28;20046;-63
2021/09/03 08:01:02;;;;;;;14.90;13.38;;;1075.80;870.40;;;;;;5069845;28;20029;-61
2021/09/03 08:03:29;;;;;;;11.75;10.95;;;1101.00;870.40;;;;;;5071126;28;20025;-61
2021/09/03 08:05:55;;;;;;;13.85;12.88;;;1024.50;896.00;;;;;;5073641;28;20478;-63
2021/09/03 08:08:21;;;;;;;12.65;11.70;;;1050.00;896.00;;;;;;5073751;28;20025;-63
2021/09/03 08:10:48;;;;;;;13.43;12.02;;;1049.60;896.00;;;;;;5073521;28;20048;-63
2021/09/03 08:13:15;;;;;;;14.82;13.18;;;1049.80;896.00;;;;;;5073701;28;20017;-63
2021/09/03 08:15:41;;;;;;;20.98;13.27;;;1050.40;870.40;;;;;;5073236;28;20120;-62
2021/09/03 08:18:07;;;;;;;19.85;12.93;;;1075.90;844.80;;;;;;5073451;28;20390;-62
2021/09/03 08:20:34;;;;;;;16.05;13.40;;;1050.20;870.40;;;;;;5073186;28;20475;-62
2021/09/03 08:23:00;;;;;;;14.00;12.60;;;1101.40;819.20;;;;;;5073174;28;20529;-62
2021/09/03 08:25:26;;;;;;;15.18;11.65;;;1050.10;870.40;;;;;;5073280;28;20034;-63
2021/09/03 08:27:52;;;;;;;11.88;10.77;;;1024.50;844.80;;;;;;5073088;28;20095;-63
2021/09/03 08:30:19;;;;;;;12.75;11.43;;;1024.50;870.40;;;;;;5073399;28;20588;-62
2021/09/03 08:32:46;;;;;;;12.55;11.32;;;998.70;921.60;;;;;;5073400;28;20024;-61
2021/09/03 08:35:12;;;;;;;13.55;10.80;;;999.00;870.40;;;;;;5072628;28;20064;-62
2021/09/03 08:37:40;;;;;;;11.43;10.30;;;999.10;870.40;;;;;;5072971;28;20033;-62
2021/09/03 08:40:08;;;;;;;13.82;9.50;;;947.60;896.00;;;;;;5073099;28;20085;-61
2021/09/03 08:42:37;;;;;;;12.25;11.23;;;947.50;921.60;;;;;;5072868;28;20020;-62
2021/09/03 08:45:05;;;;;;;11.77;10.77;;;922.00;972.80;;;;;;5072671;28;20467;-61
2021/09/03 08:47:32;;;;;;;10.40;9.50;;;896.00;998.40;;;;;;5072631;28;20024;-61
2021/09/03 08:49:58;;;;;;;9.98;7.82;;;870.40;1024.00;;;;;;5072655;28;20455;-61
2021/09/03 08:52:24;;;;;;;10.15;7.88;;;844.90;1100.80;;;;;;5072779;28;20028;-61
2021/09/03 08:54:50;;;;;;;9.13;6.60;;;820.00;1075.20;;;;;;5072466;28;20044;-60
2021/09/03 08:57:16;;;;;;;7.82;6.78;;;793.70;1126.40;;;;;;5072781;28;20052;-60
2021/09/03 08:59:42;;;;;;;8.48;7.57;;;768.10;1152.00;;;;;;5072427;28;20075;-61
2021/09/03 09:02:09;;;;;;;10.25;6.53;;;768.10;1177.60;;;;;;5072646;28;20048;-60
2021/09/03 09:04:40;;;;;;;8.80;6.80;;;743.00;1177.60;;;;;;5072472;28;20105;-61
2021/09/03 09:07:07;;;;;;;6.88;5.90;;;742.60;1203.20;;;;;;5072515;28;20078;-61
2021/09/03 09:09:35;;;;;;;9.52;6.68;;;742.50;1203.20;;;;;;5072125;28;20039;-61
2021/09/03 09:12:03;;;;;;;7.78;5.32;;;717.30;1228.80;;;;;;5072488;28;20104;-61
2021/09/03 09:14:29;;;;;;;11.05;5.85;;;717.60;1177.60;;;;;;5071139;28;20029;-61
2021/09/03 09:17:02;;;;;;;5.95;4.88;;;717.10;1177.60;;;;;;5072186;28;20025;-60
2021/09/03 09:19:28;;;;;;;5.47;4.90;;;716.80;1177.60;;;;;;5072275;28;20099;-61
2021/09/03 09:22:00;;;;;;;8.02;5.45;;;716.90;1203.20;;;;;;5072296;28;20447;-59
2021/09/03 09:24:26;;;;;;;6.90;5.50;;;692.10;1203.20;;;;;;5072212;28;20111;-60
2021/09/03 09:26:55;;;;;;;6.13;5.22;;;691.60;1228.80;;;;;;5072013;28;20099;-60
2021/09/03 09:29:26;;;;;;;7.15;5.30;;;691.60;1203.20;;;;;;5072035;28;20064;-61
2021/09/03 09:32:04;;;;;;;7.50;5.13;;;691.90;1203.20;;;;;;5071881;28;20553;-60
2021/09/03 09:34:33;;;;;;;6.15;5.28;;;692.10;1203.20;;;;;;5071752;28;20037;-61
2021/09/03 09:37:04;;;;;;;6.80;4.60;;;691.80;1203.20;;;;;;5071877;28;20024;-60
2021/09/03 09:39:41;;;;;;;6.47;5.15;;;691.90;1203.20;;;;;;5071572;28;20115;-61
2021/09/03 09:42:07;;;;;;;5.70;4.68;;;717.10;1203.20;;;;;;5071771;28;20020;-60
2021/09/03 09:44:35;;;;;;;7.07;4.57;;;717.30;1177.60;;;;;;5071486;28;20024;-61
2021/09/03 09:47:05;;;;;;;7.43;5.00;;;717.20;1177.60;;;;;;5071771;28;20020;-60
2021/09/03 09:49:31;;;;;;;4.95;4.03;;;717.20;1203.20;;;;;;5071563;28;20020;-61
2021/09/03 09:51:57;;;;;;;6.18;3.92;;;692.10;1126.40;;;;;;5071515;28;20420;-60
2021/09/03 09:54:25;;;;;;;6.22;4.00;;;716.90;1126.40;;;;;;5071294;28;20037;-61
2021/09/03 09:57:02;;;;;;;4.53;3.58;;;692.10;1126.40;;;;;;5071357;28;20104;-60
2021/09/03 09:59:29;;;;;;;6.20;4.32;;;691.80;1075.20;;;;;;5071874;28;20386;-60
2021/09/03 10:01:57;;;;;;;6.22;4.50;;;666.30;1177.60;;;;;;5071845;28;20032;-61
2021/09/03 10:04:26;;;;;;;4.68;3.95;;;691.20;1203.20;;;;;;5071296;28;20028;-61
2021/09/03 10:06:54;;;;;;;7.32;4.18;;;691.20;1152.00;;;;;;5071029;28;20029;-60
2021/09/03 10:09:25;;;;;;;6.25;3.85;;;691.40;1126.40;;;;;;5071283;28;20036;-61
2021/09/03 10:11:53;;;;;;;5.65;3.90;;;691.40;1152.00;;;;;;5071102;28;20062;-60
2021/09/03 10:14:23;;;;;;;5.65;4.28;;;666.30;1177.60;;;;;;5071391;28;20043;-60
2021/09/03 10:16:50;;;;;;;5.30;3.72;;;691.30;1177.60;;;;;;5071260;28;20166;-61
2021/09/03 10:19:22;;;;;;;5.40;4.07;;;691.20;1152.00;;;;;;5071188;28;20035;-61
2021/09/03 10:21:48;;;;;;;5.88;4.70;;;691.40;1177.60;;;;;;5071156;28;20374;-60
2021/09/03 10:24:23;;;;;;;7.18;5.20;;;691.30;1228.80;;;;;;5071112;28;20021;-60
2021/09/03 10:26:52;;;;;;;6.50;3.83;;;691.60;1228.80;;;;;;5073036;28;20050;-60
2021/09/03 10:29:48;;;;;;;8.23;4.25;;;666.30;1203.20;;;;;;5091102;28;20372;-60
2021/09/03 10:32:19;;;;;;;5.03;3.92;;;691.30;1203.20;;;;;;5090894;28;20115;-59
2021/09/03 10:34:57;;;;;;;8.75;5.25;;;691.20;1228.80;;;;;;5090988;28;20028;-59
2021/09/03 10:37:28;;;;;;;7.65;5.95;;;691.40;1228.80;;;;;;5089774;28;20493;-59
2021/09/03 10:39:56;;;;;;;6.47;4.40;;;691.20;1228.80;;;;;;5091222;28;20039;-61
2021/09/03 10:42:37;;;;;;;9.63;5.13;;;691.20;1228.80;;;;;;5090681;28;20021;-61
2021/09/03 10:45:03;;;;;;;5.10;3.80;;;691.50;1254.40;;;;;;5090802;28;20095;-61
2021/09/03 10:47:41;;;;;;;5.57;4.47;;;691.20;1203.20;;;;;;5090965;28;21073;-60
2021/09/03 10:50:12;;;;;;;5.65;4.13;;;691.30;1177.60;;;;;;5090800;28;20027;-60
2021/09/03 10:52:38;;;;;;;5.40;4.15;;;666.30;1228.80;;;;;;5090323;28;20020;-61
2021/09/03 10:55:09;;;;;;;6.78;4.55;;;666.50;1203.20;;;;;;5090512;28;20078;-60
2021/09/03 10:57:57;;;;;;;6.22;4.78;;;666.40;1228.80;;;;;;5090603;28;20043;-60
2021/09/03 11:00:23;;;;;;;5.75;4.53;;;666.30;1228.80;;;;;;5090734;28;20466;-61
2021/09/03 11:02:49;;;;;;;5.30;4.60;;;666.20;1228.80;;;;;;5090607;28;20068;-60
2021/09/03 11:05:15;;;;;;;5.93;4.72;;;665.70;1254.40;;;;;;5090583;28;20032;-60
2021/09/03 11:07:46;;;;;;;6.60;4.72;;;666.20;1305.60;;;;;;5090569;28;20065;-60
2021/09/03 11:10:19;;;;;;;9.07;4.70;;;666.20;1280.00;;;;;;5090250;28;20027;-60
2021/09/03 11:12:49;;;;;;;10.23;5.38;;;666.50;1254.40;;;;;;5090472;28;20027;-60
2021/09/03 11:15:15;;;;;;;5.40;4.45;;;665.90;1254.40;;;;;;5090359;28;20474;-60
2021/09/03 11:17:41;;;;;;;5.82;4.78;;;665.60;1254.40;;;;;;5090231;28;20035;-60
2021/09/03 11:20:08;;;;;;;8.00;5.35;;;665.90;1228.80;;;;;;5090490;28;20028;-60
2021/09/03 11:22:37;;;;;;;9.10;4.75;;;665.90;1228.80;;;;;;5090466;28;20020;-60
2021/09/03 11:25:04;;;;;;;7.80;5.10;;;665.70;1228.80;;;;;;5090062;28;20027;-61
2021/09/03 11:27:30;;;;;;;8.23;5.25;;;640.90;1228.80;;;;;;5090140;28;20441;-60
2021/09/03 11:30:01;;;;;;;7.72;5.45;;;640.90;1254.40;;;;;;5090219;28;20586;-60
2021/09/03 11:32:27;;;;;;;10.20;5.28;;;665.90;1280.00;;;;;;5090225;28;20397;-60
2021/09/03 11:35:11;;;;;;;6.75;4.53;;;666.00;1228.80;;;;;;5089937;28;20055;-60
2021/09/03 11:37:37;;;;;;;6.25;4.88;;;666.30;1280.00;;;;;;5090227;28;20028;-61
2021/09/03 11:40:23;;;;;;;5.97;4.70;;;666.20;1254.40;;;;;;5094132;28;20046;-60
2021/09/03 11:42:52;;;;;;;7.25;5.40;;;665.90;1254.40;;;;;;5093893;28;20064;-61
2021/09/03 11:45:27;;;;;;;7.80;5.50;;;640.70;1254.40;;;;;;5094371;28;20020;-60
2021/09/03 11:47:56;;;;;;;14.68;5.88;;;640.70;1280.00;;;;;;5094022;28;20039;-60
2021/09/03 11:50:46;;;;;;;6.88;5.05;;;640.70;1280.00;;;;;;5093999;28;20099;-61
2021/09/03 11:53:26;;;;;;;24.50;16.63;;;640.80;1280.00;;;;;;5093972;28;20425;-61
2021/09/03 11:55:53;;;;;;;7.93;6.20;;;640.70;1280.00;;;;;;5093965;28;20397;-61
2021/09/03 11:58:24;;;;;;;8.02;5.78;;;640.70;1254.40;;;;;;5093862;28;20080;-60
2021/09/03 12:00:54;;;;;;;7.97;5.13;;;665.60;1331.20;;;;;;5093838;28;20089;-60
2021/09/03 12:03:30;;;;;;;9.95;6.70;;;665.70;1331.20;;;;;;5093778;28;20028;-61
2021/09/03 12:05:57;;;;;;;6.90;5.70;;;665.70;1305.60;;;;;;5094059;28;20119;-60
2021/09/03 12:08:23;;;;;;;8.38;5.65;;;640.90;1254.40;;;;;;5093890;28;20053;-61
2021/09/03 12:11:10;;;;;;;5.45;4.53;;;640.60;1254.40;;;;;;5093937;28;20160;-61